Relevés horaires Matro (Suisse)


Relevés horaires à Matro - Samedi 30 Juill. 2022
Heure UTC1 Température [°C] Vent [km/h] Hum. [%] Pres.4 [hPa] Visi. [Km] Nébu. [octa] Préc.5 [mm] Cond.
2m. Res. Ros. Dir.2 Vit. Moy. Raf.3
23:00 9.8 7.1 1.6 NO 20.4 -- 40.7 57 850(0.3/3h) -- -- -- --
22:00 9.8 6.8 1.6 NNO 24.1 -- 42.6 57 850(0.9/3h) -- -- -- --
21:00 9.9 7 1.6 NNO 22.2 -- 64.8 56 850(1.0/3h) -- -- -- --
20:00 10.2 7 0.9 NO 27.8 -- 64.8 52 850(0.9/3h) -- -- -- --
19:00 10.6 6.8 0.2 NNO 38.9 -- 59.3 48 850(0.3/3h) -- -- -- --
18:00 11.0 7.8 0.1 NO 31.5 -- 57.4 47 850(0.2/3h) -- -- -- --
17:00 11.5 8.6 0.6 NO 29.6 -- 55.6 47 850(0.0/3h) -- -- -- --
16:00 12.1 9.7 -0.3 NO 24.1 -- 57.4 42 850(0.0/3h) -- -- -- --
15:00 11.9 8.8 -0.9 NO 35.2 -- 53.7 41 850(0.1/3h) -- -- -- --
14:00 12.0 9.4 -0.2 NO 25.9 -- 50.0 43 850(0.4/3h) -- -- -- --
13:00 12.1 9.8 0.8 NNO 22.2 -- 42.6 46 850(0.6/3h) -- -- -- --
12:00 11.2 8.7 1.7 NNO 22.2 -- 61.1 52 850(0.7/3h) -- -- -- --
11:00 10.1 7.1 2.2 NNO 24.1 -- 42.6 58 850(0.8/3h) -- -- -- --
10:00 10.6 7.8 1.8 NNO 24.1 -- 38.9 54 850(0.8/3h) -- -- -- --
09:00 9.9 6.7 1.5 NNO 25.9 -- 61.1 56 850(1.1/3h) -- -- -- --
08:00 9.2 5 0.9 NNO 38.9 -- 61.1 56 850(0.9/3h) -- -- -- --
07:00 9.0 4.8 1.2 NNO 37.0 -- 55.6 58 850(1.1/3h) -- -- -- --
06:00 8.9 4.8 1.2 NNO 35.2 -- 57.4 58 850(0.3/3h) -- -- -- --
05:00 8.5 4.1 1.7 NNO 37.0 -- 57.4 62 850(0.0/3h) -- -- -- --
04:00 8.4 4.3 1.8 NNO 33.3 -- 51.9 63 850(-0.5/3h) -- -- -- --
03:00 8.6 4.6 2.0 NNO 31.5 -- 57.4 63 850(-0.2/3h) -- -- -- --
02:00 8.3 4.7 1.7 NNO 25.9 -- 50.0 63 850(0.1/3h) -- -- -- --
01:00 8.5 4 1.3 NNO 38.9 -- 57.4 60 850(-0.2/3h) -- -- -- --
00:00 8.4 3.7 1.0 NNO 42.6 -- 66.7 60 850(-0.2/3h) -- -- -- --

1 Coordinated Universal Time. Actuellement il est 07:00 locale et 05:00 UTC.

2 Le vent souffle depuis la direction indiquée vers la direction oposée.

3 Les rafales max. sont disponible 40 min après l'heure du relevé.

4 Pour les stations d'altitude (plus de 600m) le géopotentiel du niveau le plus proche de la pression obligatoire est indiqué.

5 Les stations disposant d'un diffuseur peuvent indiquer "trace". Cela signifie que des précipitations ont touchés le sol mais que la quantité est inférieure à 0.1 mm.

Copyright

Les données affichées sur cette page sont la propriété exclusive de Météo Suisse.

Récapitulatif de la journée
Température [°C] Vent [km/h] Ensoleillement4 [h] Precipitations totale5 [mm] Pression [Hpa]
Min1 Max.2 Moy.3 Max. Min Max.
8.2 12.4 0 66.7 10 h 24 min 0 850.0 850.0

1 Température minimale relevée entre 18:00 UTC la veille et 18:00 UTC le jour donné.

2 Température maximale relevée entre 06:00 UTC le jour donné et 06:00 UTC le lendemain.

3 Vent moyen de la journée basé sur les relevés horaires.

4 Ensoleillement en heures relevé entre 06:00 UTC la veille et 06:00 UTC le jour donné.

5 Précipitations totales tombées entre 06:00 UTC la jour donné et 06:00 UTC le lendemain.

Graphiques horaires